Time;durP1;ratioP1;P1;durP2;ratioP2;P2;SDS_P1;SDS_P2;PMS_P1;PMS_P2;Temp;Humidity;BMP_temperature;BMP_pressure;BME280_temperature;BME280_humidity;BME280_pressure;Samples;Min_cycle;Max_cycle;Signal;HPM_P1;HPM_P2
2021/05/19 00:01:16;;;;;;;1.50;0.80;;;;;;;24.34;41.52;94742.28;4971457;28;20027;-69
2021/05/19 00:03:42;;;;;;;1.20;0.52;;;;;;;24.31;41.54;94732.38;4953420;28;20054;-69
2021/05/19 00:06:08;;;;;;;1.13;0.50;;;;;;;24.32;41.36;94728.38;4953891;28;20022;-69
2021/05/19 00:08:33;;;;;;;1.35;0.80;;;;;;;24.32;41.58;94733.09;4954045;28;20113;-68
2021/05/19 00:10:58;;;;;;;0.82;0.50;;;;;;;24.27;41.51;94737.38;4971155;28;20300;-69
2021/05/19 00:13:28;;;;;;;1.30;0.52;;;;;;;23.94;41.26;94699.72;4953535;28;20510;-68
2021/05/19 00:15:53;;;;;;;0.90;0.60;;;;;;;24.29;41.59;94734.91;4954560;28;20023;-68
2021/05/19 00:18:19;;;;;;;0.95;0.50;;;;;;;24.29;41.75;94750.50;4970950;28;20085;-69
2021/05/19 00:20:44;;;;;;;1.83;0.60;;;;;;;24.25;41.50;94744.66;4970838;28;20054;-69
2021/05/19 00:23:10;;;;;;;0.85;0.50;;;;;;;24.06;41.22;94716.66;4971042;28;20035;-69
2021/05/19 00:25:35;;;;;;;1.50;0.50;;;;;;;24.23;41.55;94742.44;4970836;28;20031;-69
2021/05/19 00:28:01;;;;;;;1.10;0.60;;;;;;;24.21;42.13;94744.94;4971077;28;20049;-69
2021/05/19 00:30:27;;;;;;;1.48;0.85;;;;;;;24.25;41.52;94745.38;4970925;28;20035;-69
2021/05/19 00:32:52;;;;;;;1.65;0.70;;;;;;;24.02;41.76;94711.53;4953261;28;20030;-68
2021/05/19 00:35:18;;;;;;;1.17;0.70;;;;;;;24.02;41.72;94722.44;4953263;28;20022;-69
2021/05/19 00:37:43;;;;;;;1.10;0.70;;;;;;;23.92;41.58;94696.81;4953589;28;20023;-69
2021/05/19 00:40:09;;;;;;;1.88;0.80;;;;;;;24.18;41.56;94735.06;4970589;28;20031;-71
2021/05/19 00:42:35;;;;;;;1.35;0.90;;;;;;;23.97;42.07;94709.59;4970418;28;20030;-68
2021/05/19 00:45:08;;;;;;;2.25;0.80;;;;;;;24.13;41.37;94733.16;4952088;28;20023;-69
2021/05/19 00:47:34;;;;;;;1.23;0.80;;;;;;;24.10;42.08;94728.75;4953320;28;20027;-69
2021/05/19 00:50:00;;;;;;;1.30;0.60;;;;;;;24.14;42.50;94737.38;4953390;28;20026;-68
2021/05/19 00:52:25;;;;;;;1.38;0.70;;;;;;;24.14;42.00;94734.66;4970110;28;20062;-69
2021/05/19 00:54:51;;;;;;;1.83;0.70;;;;;;;24.17;41.82;94722.69;4970335;28;20019;-68
2021/05/19 00:57:16;;;;;;;2.08;0.90;;;;;;;23.96;41.81;94713.59;4936727;28;20035;-68
2021/05/19 00:59:42;;;;;;;1.52;0.70;;;;;;;24.04;41.96;94736.28;4937339;28;20034;-69
2021/05/19 01:02:07;;;;;;;1.92;0.60;;;;;;;24.11;42.19;94741.13;4936705;28;20026;-69
2021/05/19 01:04:33;;;;;;;1.10;0.60;;;;;;;24.10;42.18;94739.66;4953002;28;20077;-69
2021/05/19 01:07:02;;;;;;;1.30;0.80;;;;;;;24.11;42.09;94730.22;4970030;28;20521;-69
2021/05/19 01:09:36;;;;;;;1.10;0.70;;;;;;;23.95;42.15;94712.13;4970193;28;20037;-68
2021/05/19 01:12:07;;;;;;;1.60;0.80;;;;;;;24.08;41.97;94728.53;4939003;28;20026;-69
2021/05/19 01:14:32;;;;;;;1.67;0.98;;;;;;;23.88;42.22;94701.84;4952743;28;20045;-69
2021/05/19 01:16:58;;;;;;;1.20;0.80;;;;;;;23.85;42.25;94690.50;4952972;28;20038;-69
2021/05/19 01:19:25;;;;;;;1.55;0.80;;;;;;;24.09;42.28;94727.25;4935552;28;20043;-69
2021/05/19 01:21:50;;;;;;;2.22;0.85;;;;;;;24.11;41.95;94729.47;4969631;28;20045;-68
2021/05/19 01:24:16;;;;;;;1.85;0.93;;;;;;;24.09;41.95;94738.19;4936583;28;20030;-68
2021/05/19 01:26:42;;;;;;;1.60;0.80;;;;;;;24.06;42.31;94738.50;4969793;28;20038;-68
2021/05/19 01:29:07;;;;;;;1.40;0.80;;;;;;;24.03;42.17;94726.63;4952559;28;20081;-69
2021/05/19 01:31:33;;;;;;;1.30;0.80;;;;;;;24.04;42.44;94741.00;4952140;28;20109;-69
2021/05/19 01:33:59;;;;;;;1.50;0.77;;;;;;;23.83;42.04;94714.81;4969579;28;20506;-69
2021/05/19 01:36:24;;;;;;;1.98;0.80;;;;;;;24.02;42.50;94727.88;4969770;28;20033;-68
2021/05/19 01:38:50;;;;;;;1.35;1.05;;;;;;;23.98;42.71;94732.19;4969466;28;20390;-68
2021/05/19 01:41:15;;;;;;;1.42;0.90;;;;;;;23.69;42.14;94694.19;4969866;28;20533;-68
2021/05/19 01:43:41;;;;;;;0.95;0.80;;;;;;;23.98;42.08;94738.38;4969141;28;20558;-68
2021/05/19 01:46:07;;;;;;;2.35;1.02;;;;;;;24.00;42.62;94730.38;4968689;28;20034;-69
2021/05/19 01:48:33;;;;;;;1.95;0.70;;;;;;;23.98;41.99;94727.44;4969758;28;20479;-68
2021/05/19 01:50:58;;;;;;;1.65;0.90;;;;;;;23.99;41.91;94733.63;4969363;28;20062;-69
2021/05/19 01:53:28;;;;;;;1.65;1.00;;;;;;;24.01;42.43;94742.78;4968975;28;20112;-69
2021/05/19 01:55:53;;;;;;;1.27;0.70;;;;;;;23.97;42.14;94734.16;4968763;28;20034;-69
2021/05/19 01:58:19;;;;;;;2.05;0.82;;;;;;;23.98;42.53;94743.81;4969268;28;20049;-69
2021/05/19 02:00:44;;;;;;;1.17;0.70;;;;;;;23.99;42.35;94739.84;4969319;28;20022;-69
2021/05/19 02:03:10;;;;;;;1.73;0.90;;;;;;;23.98;42.22;94738.38;4968695;28;20109;-69
2021/05/19 02:05:36;;;;;;;1.30;0.90;;;;;;;23.95;42.24;94733.94;4969363;28;20411;-69
2021/05/19 02:08:04;;;;;;;2.50;0.80;;;;;;;23.95;42.40;94736.66;4969253;28;20035;-69
2021/05/19 02:10:29;;;;;;;1.90;0.80;;;;;;;23.76;42.66;94699.06;4969320;28;20089;-68
2021/05/19 02:12:58;;;;;;;1.02;0.70;;;;;;;23.91;42.53;94722.59;4969068;28;20778;-69
2021/05/19 02:15:23;;;;;;;1.13;0.77;;;;;;;23.95;42.46;94738.66;4969011;28;20521;-69
2021/05/19 02:17:49;;;;;;;1.35;0.75;;;;;;;23.94;42.20;94727.00;4969137;28;20038;-69
2021/05/19 02:20:19;;;;;;;1.20;0.73;;;;;;;23.91;42.44;94721.88;4969008;28;20042;-69
2021/05/19 02:22:45;;;;;;;1.70;0.90;;;;;;;23.91;42.55;94717.13;4969128;28;20030;-69
2021/05/19 02:25:11;;;;;;;2.03;0.90;;;;;;;23.80;42.51;94704.97;4969347;28;20031;-69
2021/05/19 02:27:36;;;;;;;1.70;0.90;;;;;;;23.89;42.79;94713.47;4968645;28;20049;-69
2021/05/19 02:30:03;;;;;;;1.90;0.80;;;;;;;23.89;42.46;94719.66;4968950;28;20027;-69
2021/05/19 02:32:29;;;;;;;1.70;0.80;;;;;;;23.51;42.67;94667.69;4968868;28;20042;-69
2021/05/19 02:34:55;;;;;;;1.50;0.90;;;;;;;23.89;42.64;94718.94;4951023;28;20037;-68
2021/05/19 02:37:20;;;;;;;1.90;0.90;;;;;;;23.86;42.12;94698.88;4968858;28;20026;-69
2021/05/19 02:39:46;;;;;;;1.67;0.85;;;;;;;23.86;42.88;94694.69;4968931;28;20023;-70
2021/05/19 02:42:11;;;;;;;1.50;0.70;;;;;;;23.86;42.22;94703.59;4968034;28;20127;-69
2021/05/19 02:44:36;;;;;;;2.05;0.80;;;;;;;23.71;42.41;94675.34;4950848;28;20035;-70
2021/05/19 02:47:03;;;;;;;1.52;0.90;;;;;;;23.85;43.35;94696.66;4951624;28;20054;-68
2021/05/19 02:49:28;;;;;;;1.58;0.90;;;;;;;23.85;42.99;94696.66;4971214;28;20832;-70
2021/05/19 02:51:54;;;;;;;1.40;0.80;;;;;;;23.95;42.64;94701.22;4939234;28;20023;-72
2021/05/19 02:54:19;;;;;;;1.63;0.93;;;;;;;23.93;43.02;94698.28;4954033;28;20026;-71
2021/05/19 02:56:45;;;;;;;1.45;0.88;;;;;;;23.94;42.88;94705.19;4970724;28;20161;-68
2021/05/19 02:59:10;;;;;;;1.40;0.82;;;;;;;23.96;43.30;94705.41;4952933;28;20082;-69
2021/05/19 03:01:36;;;;;;;1.20;0.80;;;;;;;23.96;43.17;94708.16;4969104;28;20086;-70
2021/05/19 03:04:01;;;;;;;1.73;0.95;;;;;;;23.77;43.12;94673.28;4969495;28;20055;-68
2021/05/19 03:06:27;;;;;;;1.08;0.80;;;;;;;24.09;43.32;94716.34;4951802;28;20117;-69
2021/05/19 03:08:52;;;;;;;1.33;0.90;;;;;;;24.11;42.88;94719.31;4955387;28;20046;-69
2021/05/19 03:11:18;;;;;;;1.20;0.77;;;;;;;24.22;42.89;94724.59;4973700;28;20031;-70
2021/05/19 03:13:44;;;;;;;1.63;1.08;;;;;;;24.36;43.42;94723.38;4978928;28;20026;-70
2021/05/19 03:16:09;;;;;;;2.42;1.00;;;;;;;24.50;42.29;94728.34;4981459;28;20046;-70
2021/05/19 03:18:35;;;;;;;1.55;0.90;;;;;;;24.60;42.17;94725.94;4967953;28;20030;-70
2021/05/19 03:21:01;;;;;;;1.40;0.80;;;;;;;24.79;41.72;94732.03;4965467;28;20057;-71
2021/05/19 03:23:27;;;;;;;1.67;1.15;;;;;;;24.92;41.35;94736.22;4966893;28;20418;-72
2021/05/19 03:25:53;;;;;;;1.48;0.90;;;;;;;25.02;40.55;94729.13;4978214;28;20031;-70
2021/05/19 03:28:18;;;;;;;1.20;0.80;;;;;;;25.11;41.24;94720.50;4964636;28;20030;-70
2021/05/19 03:30:44;;;;;;;1.45;0.80;;;;;;;25.20;40.52;94705.66;4964619;28;20037;-70
2021/05/19 03:33:09;;;;;;;1.05;0.70;;;;;;;25.30;40.27;94704.69;4947711;28;20069;-69
2021/05/19 03:35:34;;;;;;;1.38;0.73;;;;;;;25.55;39.79;94725.03;4955953;28;20031;-69
2021/05/19 03:38:00;;;;;;;2.13;1.08;;;;;;;25.67;39.98;94731.75;4963055;28;20419;-69
2021/05/19 03:40:25;;;;;;;2.22;0.70;;;;;;;25.72;39.72;94728.16;4957260;28;20035;-69
2021/05/19 03:42:51;;;;;;;1.40;1.00;;;;;;;25.82;39.87;94738.84;4973144;28;20062;-69
2021/05/19 03:45:19;;;;;;;2.15;1.10;;;;;;;25.94;39.49;94733.84;4971883;28;20034;-70
2021/05/19 03:47:46;;;;;;;1.00;0.73;;;;;;;25.95;39.63;94722.38;4961554;28;20031;-69
2021/05/19 03:50:12;;;;;;;1.42;0.80;;;;;;;26.12;38.99;94738.41;4976384;28;20038;-70
2021/05/19 03:52:38;;;;;;;1.55;1.00;;;;;;;26.07;39.05;94720.84;4973439;28;20487;-70
2021/05/19 03:55:04;;;;;;;1.38;0.93;;;;;;;26.26;38.46;94726.84;4972953;28;20030;-69
2021/05/19 03:57:30;;;;;;;1.13;0.80;;;;;;;26.20;38.50;94698.88;4971377;28;20038;-69
2021/05/19 03:59:55;;;;;;;1.52;0.95;;;;;;;26.19;38.28;94678.25;4957618;28;20060;-69
2021/05/19 04:02:21;;;;;;;1.45;0.88;;;;;;;26.27;38.51;94695.47;4947298;28;20457;-70
2021/05/19 04:04:46;;;;;;;1.63;0.77;;;;;;;26.42;38.73;94696.34;4945711;28;20426;-69
2021/05/19 04:07:12;;;;;;;1.02;0.60;;;;;;;26.60;37.88;94722.03;4978108;28;20406;-70
2021/05/19 04:09:38;;;;;;;1.38;0.75;;;;;;;26.65;37.99;94729.38;4960514;28;20019;-69
2021/05/19 04:12:04;;;;;;;1.13;0.80;;;;;;;26.68;37.67;94734.53;4957870;28;20089;-69
2021/05/19 04:14:29;;;;;;;1.48;0.73;;;;;;;26.61;37.96;94713.28;4977171;28;20105;-69
2021/05/19 04:16:55;;;;;;;1.67;0.77;;;;;;;26.76;38.25;94723.63;4958122;28;20113;-69
2021/05/19 04:19:20;;;;;;;1.50;0.80;;;;;;;26.80;37.83;94736.44;4962201;28;20413;-69
2021/05/19 04:21:45;;;;;;;1.38;0.68;;;;;;;26.71;37.84;94716.25;4979646;28;20030;-70
2021/05/19 04:24:11;;;;;;;1.38;0.95;;;;;;;26.82;38.11;94722.91;4955168;28;20030;-70
2021/05/19 04:26:36;;;;;;;1.33;0.93;;;;;;;26.93;37.47;94722.63;4954872;28;20031;-70
2021/05/19 04:29:03;;;;;;;1.40;0.70;;;;;;;26.91;37.90;94724.47;4951047;29;20019;-67
2021/05/19 04:31:28;;;;;;;1.17;0.70;;;;;;;27.05;37.90;94745.00;4968442;28;20113;-69
2021/05/19 04:33:53;;;;;;;1.52;0.85;;;;;;;26.92;37.31;94732.16;4967219;28;20530;-70
2021/05/19 04:36:19;;;;;;;1.10;0.80;;;;;;;26.97;37.17;94727.78;4938486;29;20020;-70
2021/05/19 04:38:45;;;;;;;2.03;0.95;;;;;;;27.15;37.50;94741.22;4935664;29;20027;-71
2021/05/19 04:41:10;;;;;;;3.00;0.77;;;;;;;27.16;37.21;94756.41;4967301;28;20038;-72
2021/05/19 04:43:35;;;;;;;1.63;0.80;;;;;;;27.15;37.40;94743.97;4969893;28;20041;-70
2021/05/19 04:46:01;;;;;;;2.90;0.90;;;;;;;27.24;37.44;94746.22;4971512;28;20081;-74
2021/05/19 04:48:27;;;;;;;4.90;0.73;;;;;;;27.37;37.10;94721.41;4974737;28;20086;-71
2021/05/19 04:50:53;;;;;;;2.67;0.80;;;;;;;27.36;37.34;94725.44;4982434;28;20046;-72
2021/05/19 04:53:19;;;;;;;2.55;0.80;;;;;;;27.34;37.14;94722.50;4973074;28;20030;-70
2021/05/19 04:55:44;;;;;;;2.70;0.93;;;;;;;27.34;37.55;94717.00;4968281;28;20032;-73
2021/05/19 04:58:09;;;;;;;4.07;0.88;;;;;;;27.34;37.34;94717.00;4969579;28;20422;-70
2021/05/19 05:00:38;;;;;;;1.08;0.60;;;;;;;27.37;37.71;94726.91;4956429;28;20393;-71
2021/05/19 05:03:04;;;;;;;3.03;1.10;;;;;;;27.42;37.73;94715.75;4953126;29;20066;-70
2021/05/19 05:05:29;;;;;;;2.78;0.90;;;;;;;27.18;37.83;94687.31;4936926;28;20055;-70
2021/05/19 05:07:55;;;;;;;2.13;0.90;;;;;;;27.13;38.42;94658.03;4931763;29;20486;-71
2021/05/19 05:10:20;;;;;;;1.25;0.80;;;;;;;27.25;37.87;94681.88;4955798;28;20027;-71
2021/05/19 05:12:47;;;;;;;3.22;0.90;;;;;;;27.21;38.15;94676.00;4938812;29;20032;-73
2021/05/19 05:15:15;;;;;;;2.38;0.80;;;;;;;27.50;37.81;94691.13;4932109;29;20034;-73
2021/05/19 05:17:40;;;;;;;2.45;0.88;;;;;;;27.44;38.19;94704.25;4933386;29;20036;-71
2021/05/19 05:20:07;;;;;;;2.15;0.93;;;;;;;27.49;38.04;94701.34;4942542;28;20037;-72
2021/05/19 05:22:32;;;;;;;1.38;0.70;;;;;;;27.25;38.02;94676.38;4956451;28;20089;-73
2021/05/19 05:24:58;;;;;;;1.38;0.68;;;;;;;27.39;37.85;94674.97;4940862;28;20054;-71
2021/05/19 05:27:23;;;;;;;1.50;0.73;;;;;;;27.57;37.98;94698.66;4958052;28;20030;-70
2021/05/19 05:29:49;;;;;;;2.38;0.80;;;;;;;27.68;39.02;94723.00;4960380;28;20410;-71
2021/05/19 05:32:14;;;;;;;1.83;0.80;;;;;;;27.70;39.00;94714.94;4960333;28;20503;-70
2021/05/19 05:34:39;;;;;;;2.53;0.88;;;;;;;27.76;38.99;94719.72;4959303;28;20027;-71
2021/05/19 05:37:05;;;;;;;2.35;1.02;;;;;;;27.77;39.48;94726.69;4959943;28;20050;-71
2021/05/19 05:39:30;;;;;;;2.97;1.00;;;;;;;27.76;39.48;94708.75;4960254;28;20455;-71
2021/05/19 05:41:56;;;;;;;1.52;0.82;;;;;;;27.82;40.47;94733.28;4960682;28;20034;-70
2021/05/19 05:44:21;;;;;;;2.80;0.93;;;;;;;27.82;39.08;94728.53;4960940;28;20026;-71
2021/05/19 05:46:47;;;;;;;1.33;0.70;;;;;;;27.75;40.16;94723.75;4964451;28;20446;-71
2021/05/19 05:49:13;;;;;;;2.03;0.93;;;;;;;27.68;40.06;94725.75;4960889;28;20049;-72
2021/05/19 05:51:38;;;;;;;1.73;0.65;;;;;;;27.68;40.48;94726.47;4957118;28;20488;-69
2021/05/19 05:54:05;;;;;;;1.67;0.88;;;;;;;27.75;40.00;94723.75;4962326;28;20712;-72
2021/05/19 05:56:30;;;;;;;1.65;0.68;;;;;;;27.78;39.80;94706.19;4957460;28;20033;-70
2021/05/19 05:58:56;;;;;;;3.13;0.95;;;;;;;27.85;39.51;94721.94;4957434;28;20058;-70
2021/05/19 06:01:22;;;;;;;2.03;1.00;;;;;;;27.81;39.35;94701.63;4958418;28;20496;-71
2021/05/19 06:03:47;;;;;;;1.58;0.93;;;;;;;27.92;39.82;94715.75;4965064;28;20047;-71
2021/05/19 06:06:13;;;;;;;1.63;0.90;;;;;;;27.89;39.06;94711.34;4957090;28;20035;-71
2021/05/19 06:08:38;;;;;;;2.00;1.00;;;;;;;27.92;39.50;94704.78;4895151;28;20047;-68
2021/05/19 06:11:05;;;;;;;2.95;1.00;;;;;;;27.91;39.06;94708.06;4942422;28;20034;-69
2021/05/19 06:13:34;;;;;;;2.42;0.82;;;;;;;27.94;38.84;94718.69;4950870;28;20038;-68
2021/05/19 06:16:00;;;;;;;2.10;0.80;;;;;;;27.80;39.19;94714.63;4952423;28;20023;-68
2021/05/19 06:18:25;;;;;;;2.22;1.20;;;;;;;27.82;39.14;94712.06;4951939;28;20082;-71
2021/05/19 06:20:51;;;;;;;1.55;0.80;;;;;;;27.80;38.59;94706.41;4942404;28;20072;-73
2021/05/19 06:23:16;;;;;;;2.25;0.90;;;;;;;27.62;39.36;94708.72;4945796;28;20024;-71
2021/05/19 06:25:42;;;;;;;2.78;1.10;;;;;;;27.62;39.29;94703.94;4950569;28;20037;-72
2021/05/19 06:28:08;;;;;;;5.00;1.10;;;;;;;27.57;39.70;94706.88;4949873;28;20039;-71
2021/05/19 06:30:33;;;;;;;3.50;1.50;;;;;;;27.47;39.66;94708.63;4950236;28;20418;-70
2021/05/19 06:32:59;;;;;;;3.17;1.02;;;;;;;27.39;40.39;94699.66;4948019;28;20463;-72
2021/05/19 06:35:24;;;;;;;2.70;0.85;;;;;;;27.35;40.06;94691.03;4946823;28;20387;-72
2021/05/19 06:37:50;;;;;;;3.15;1.08;;;;;;;27.23;40.78;94695.38;4948196;28;20414;-72
2021/05/19 06:40:15;;;;;;;2.60;1.08;;;;;;;27.17;40.43;94694.81;4947818;28;20038;-73
2021/05/19 06:42:41;;;;;;;2.30;1.00;;;;;;;27.10;40.70;94698.25;4932379;28;20032;-73
2021/05/19 06:45:06;;;;;;;3.35;1.10;;;;;;;27.03;41.16;94698.22;4952863;28;20120;-73
2021/05/19 06:47:32;;;;;;;1.83;1.00;;;;;;;26.97;41.72;94678.44;4953143;28;20554;-73
2021/05/19 06:49:58;;;;;;;2.22;1.00;;;;;;;26.85;41.90;94683.47;4948302;28;20422;-72
2021/05/19 06:52:23;;;;;;;3.15;1.10;;;;;;;26.55;41.71;94666.13;4949300;28;20043;-73
2021/05/19 06:54:49;;;;;;;3.00;1.27;;;;;;;26.57;42.35;94668.31;4950352;28;20483;-72
2021/05/19 06:57:14;;;;;;;2.28;1.20;;;;;;;26.57;42.40;94673.81;4950370;28;20042;-73
2021/05/19 06:59:40;;;;;;;3.72;1.38;;;;;;;26.57;42.26;94673.81;4950386;28;20039;-72
2021/05/19 07:02:05;;;;;;;2.55;1.00;;;;;;;26.39;42.89;94647.41;4951575;28;20034;-72
2021/05/19 07:04:30;;;;;;;1.92;1.20;;;;;;;26.50;42.54;94669.00;4963000;28;20518;-73
2021/05/19 07:06:58;;;;;;;1.90;1.23;;;;;;;26.42;42.60;94673.72;4953666;28;20034;-73
2021/05/19 07:09:25;;;;;;;1.90;1.15;;;;;;;26.30;43.26;94656.09;4954389;28;20131;-72
2021/05/19 07:11:54;;;;;;;2.15;1.27;;;;;;;26.25;43.18;94665.16;4955763;28;20045;-73
2021/05/19 07:14:21;;;;;;;1.85;1.00;;;;;;;26.20;43.60;94663.28;4964238;28;20027;-72
2021/05/19 07:16:50;;;;;;;1.83;0.98;;;;;;;26.17;43.50;94669.81;4955089;28;20058;-72
2021/05/19 07:19:15;;;;;;;3.22;1.33;;;;;;;26.13;44.19;94669.44;4966305;28;20023;-72
2021/05/19 07:21:41;;;;;;;2.03;0.90;;;;;;;26.07;43.92;94649.69;4954376;28;20031;-71
2021/05/19 07:24:07;;;;;;;2.35;1.05;;;;;;;26.05;43.25;94646.75;4954706;28;20030;-72
2021/05/19 07:26:33;;;;;;;2.17;1.30;;;;;;;26.03;43.84;94643.81;4954895;28;20470;-71
2021/05/19 07:28:58;;;;;;;2.50;1.10;;;;;;;26.01;43.65;94640.88;4972247;28;20038;-70
2021/05/19 07:31:24;;;;;;;2.58;1.17;;;;;;;25.83;44.32;94625.41;4972377;28;20558;-71
2021/05/19 07:33:49;;;;;;;2.10;1.10;;;;;;;25.92;43.67;94638.63;4951002;29;20518;-72
2021/05/19 07:36:15;;;;;;;3.03;1.40;;;;;;;25.88;43.07;94630.00;4959624;28;20486;-72
2021/05/19 07:38:40;;;;;;;1.50;1.00;;;;;;;25.77;44.10;94610.41;4970080;28;20035;-72
2021/05/19 07:41:06;;;;;;;2.22;1.10;;;;;;;25.83;42.76;94619.94;4971834;28;20198;-72
2021/05/19 07:43:31;;;;;;;2.80;1.30;;;;;;;25.81;43.48;94622.50;4958484;28;20046;-71
2021/05/19 07:45:57;;;;;;;2.00;1.13;;;;;;;25.76;43.71;94616.41;4954356;28;20485;-72
2021/05/19 07:48:22;;;;;;;1.73;1.13;;;;;;;25.76;43.21;94617.13;4971356;28;20035;-72
2021/05/19 07:50:47;;;;;;;2.40;1.17;;;;;;;25.70;43.50;94604.88;4971475;28;20422;-71
2021/05/19 07:53:13;;;;;;;3.28;1.50;;;;;;;25.69;43.41;94597.94;4970191;28;20037;-72
2021/05/19 07:55:54;;;;;;;2.90;1.40;;;;;;;25.67;42.75;94605.94;4954556;28;20034;-71
2021/05/19 07:58:24;;;;;;;2.85;1.88;;;;;;;25.59;43.22;94602.34;4969032;28;20121;-72
2021/05/19 08:01:04;;;;;;;4.38;1.27;;;;;;;25.57;43.48;94596.69;4976448;28;20035;-72
2021/05/19 08:03:31;;;;;;;2.22;1.38;;;;;;;25.55;43.05;94591.03;4970432;28;20047;-71
2021/05/19 08:05:57;;;;;;;2.72;1.42;;;;;;;25.55;42.52;94593.78;4950145;28;20391;-72
2021/05/19 08:08:22;;;;;;;3.00;1.30;;;;;;;25.52;42.75;94592.09;4954157;28;20906;-72
2021/05/19 08:10:48;;;;;;;2.50;1.13;;;;;;;25.48;42.88;94595.16;4959877;28;20113;-72
2021/05/19 08:13:13;;;;;;;2.55;1.35;;;;;;;25.47;42.48;94592.94;4967482;28;20509;-72
2021/05/19 08:15:38;;;;;;;4.05;1.70;;;;;;;25.31;40.00;94577.69;4970810;28;20501;-71
2021/05/19 08:18:07;;;;;;;3.25;1.60;;;;;;;25.24;40.83;94597.47;4970428;28;20027;-71
2021/05/19 08:20:33;;;;;;;3.88;1.50;;;;;;;25.27;40.97;94595.69;4970855;28;20023;-71
2021/05/19 08:22:58;;;;;;;3.30;1.55;;;;;;;25.23;41.24;94587.81;4968791;28;20038;-70
2021/05/19 08:25:25;;;;;;;2.80;1.65;;;;;;;25.30;40.97;94600.81;4971024;28;20018;-71
2021/05/19 08:27:50;;;;;;;4.32;1.65;;;;;;;25.31;41.65;94590.63;4958185;28;20046;-72
2021/05/19 08:30:16;;;;;;;3.80;1.30;;;;;;;25.29;42.49;94599.34;4951928;28;20023;-72
2021/05/19 08:32:42;;;;;;;2.95;1.45;;;;;;;25.25;42.69;94577.09;4951726;28;20027;-72
2021/05/19 08:35:08;;;;;;;5.07;1.30;;;;;;;25.27;42.77;94574.53;4962743;28;20084;-73
2021/05/19 08:37:33;;;;;;;2.80;1.50;;;;;;;25.23;42.04;94584.34;4952952;28;20030;-72
2021/05/19 08:39:59;;;;;;;4.18;1.55;;;;;;;25.23;42.95;94567.94;4971389;28;20529;-72
2021/05/19 08:42:24;;;;;;;3.03;1.35;;;;;;;25.23;42.59;94557.75;4968943;28;20030;-72
2021/05/19 08:44:50;;;;;;;2.38;1.50;;;;;;;25.24;42.90;94559.19;4932714;29;20039;-73
2021/05/19 08:47:22;;;;;;;2.38;1.33;;;;;;;25.18;42.85;94555.88;4950908;29;20035;-72
2021/05/19 08:49:47;;;;;;;3.40;1.30;;;;;;;25.17;41.95;94553.66;4951531;29;20592;-71
2021/05/19 08:52:12;;;;;;;2.28;1.33;;;;;;;25.20;41.92;94564.28;4941104;28;20041;-72
2021/05/19 08:54:38;;;;;;;2.20;1.10;;;;;;;25.20;42.36;94567.03;4967369;28;20042;-72
2021/05/19 08:57:04;;;;;;;3.72;1.30;;;;;;;25.17;42.78;94559.88;4959850;28;20030;-72
2021/05/19 08:59:29;;;;;;;4.22;1.40;;;;;;;25.20;42.77;94569.00;4970378;28;20037;-72
2021/05/19 09:01:55;;;;;;;2.92;1.50;;;;;;;25.16;41.62;94569.34;4971229;28;20475;-70
2021/05/19 09:04:24;;;;;;;2.70;1.33;;;;;;;25.19;41.46;94568.28;4974816;28;20224;-72
2021/05/19 09:06:54;;;;;;;3.42;1.27;;;;;;;25.18;41.25;94547.66;4978913;28;20456;-71
2021/05/19 09:09:39;;;;;;;5.75;1.90;;;;;;;25.22;41.31;94561.75;4972660;28;20581;-71
2021/05/19 09:12:09;;;;;;;2.97;1.25;;;;;;;25.23;42.29;94557.75;4972076;28;20073;-70
2021/05/19 09:14:35;;;;;;;;;;;;;;;25.28;40.15;94550.69;4965171;28;20042;-70
2021/05/19 09:17:17;;;;;;;4.72;2.13;;;;;;;25.23;39.95;94535.91;4971503;28;19910;-70
2021/05/19 09:19:43;;;;;;;4.57;1.55;;;;;;;25.38;39.77;94546.94;4971334;28;20427;-70
2021/05/19 09:22:21;;;;;;;4.25;1.92;;;;;;;25.45;38.88;94540.81;4971300;28;20034;-77
2021/05/19 09:24:48;;;;;;;7.03;2.28;;;;;;;25.46;38.85;94543.00;4955748;28;20031;-75
2021/05/19 09:27:13;;;;;;;6.25;2.20;;;;;;;25.53;36.60;94541.59;4955381;28;20034;-75
2021/05/19 09:29:39;;;;;;;5.90;2.22;;;;;;;25.63;36.61;94546.06;4971172;28;20038;-74
2021/05/19 09:32:09;;;;;;;5.93;2.40;;;;;;;25.62;36.02;94538.41;4967014;28;20524;-73
2021/05/19 09:34:40;;;;;;;3.65;1.67;;;;;;;25.66;35.74;94534.09;4967065;28;20031;-79
2021/05/19 09:37:25;;;;;;;4.97;1.85;;;;;;;25.81;37.97;94542.41;4964503;28;20128;-70
2021/05/19 09:39:53;;;;;;;6.55;2.28;;;;;;;25.82;35.57;94536.41;4969399;28;20036;-71
2021/05/19 09:42:20;;;;;;;3.95;1.73;;;;;;;25.99;37.16;94520.28;4956646;28;20018;-70
2021/05/19 09:44:47;;;;;;;4.25;1.80;;;;;;;26.00;36.26;94524.47;4973444;28;20030;-70
2021/05/19 09:47:13;;;;;;;5.22;1.48;;;;;;;26.23;36.38;94503.44;4990300;28;20029;-69
2021/05/19 09:49:39;;;;;;;3.30;1.60;;;;;;;26.35;36.21;94512.84;4980404;28;20023;-70
2021/05/19 09:52:12;;;;;;;4.53;1.65;;;;;;;26.31;35.30;94520.69;4953549;28;20027;-72
2021/05/19 09:54:39;;;;;;;4.78;1.63;;;;;;;26.27;35.20;94514.78;4979183;28;20121;-71
2021/05/19 09:57:11;;;;;;;4.35;1.50;;;;;;;26.39;35.31;94516.69;4958528;28;20440;-72
2021/05/19 09:59:40;;;;;;;4.15;1.40;;;;;;;26.25;34.29;94511.84;4959806;28;20486;-72
2021/05/19 10:02:06;;;;;;;4.72;1.40;;;;;;;26.40;33.42;94517.44;4960608;28;20550;-72
2021/05/19 10:04:38;;;;;;;3.22;1.40;;;;;;;26.35;32.90;94505.38;4953551;28;20089;-72
2021/05/19 10:07:06;;;;;;;4.45;1.70;;;;;;;26.36;33.53;94506.81;4970329;28;20081;-72
2021/05/19 10:09:32;;;;;;;4.95;1.42;;;;;;;26.40;33.33;94495.53;4970322;28;20085;-71
2021/05/19 10:11:58;;;;;;;4.85;1.45;;;;;;;26.61;33.87;94487.94;4953449;28;20038;-71
2021/05/19 10:14:24;;;;;;;4.35;1.20;;;;;;;26.57;32.82;94493.03;4970794;28;20113;-76
2021/05/19 10:17:10;;;;;;;2.90;1.48;;;;;;;26.48;33.03;94490.81;4952760;28;20111;-76
2021/05/19 10:19:42;;;;;;;3.25;1.10;;;;;;;26.28;32.01;94475.22;4950734;28;20042;-73
2021/05/19 10:22:12;;;;;;;4.90;1.17;;;;;;;26.59;33.02;94476.78;4949341;28;20494;-78
2021/05/19 10:24:48;;;;;;;4.28;1.42;;;;;;;26.73;33.57;94467.16;4964962;28;20038;-74
2021/05/19 10:27:15;;;;;;;2.92;1.02;;;;;;;26.80;34.79;94467.91;4950941;28;20510;-74
2021/05/19 10:29:50;;;;;;;8.88;1.55;;;;;;;26.94;34.87;94461.00;4951492;28;20038;-74
2021/05/19 10:32:21;;;;;;;3.05;1.00;;;;;;;26.93;34.70;94459.53;4965330;28;20117;-73
2021/05/19 10:34:51;;;;;;;2.97;1.33;;;;;;;26.99;34.90;94457.34;4966216;28;20070;-73
2021/05/19 10:37:35;;;;;;;4.18;1.20;;;;;;;26.96;35.07;94449.50;4936385;28;20030;-72
2021/05/19 10:40:06;;;;;;;4.03;1.10;;;;;;;27.01;34.79;94449.34;4967634;28;20557;-74
2021/05/19 10:42:33;;;;;;;3.20;1.20;;;;;;;26.96;34.89;94452.25;4965875;28;20037;-74
2021/05/19 10:45:12;;;;;;;4.30;1.25;;;;;;;26.91;35.19;94434.69;4962979;28;20041;-73
2021/05/19 10:47:38;;;;;;;4.28;1.20;;;;;;;26.61;35.41;94416.72;4965069;28;20031;-73
2021/05/19 10:50:29;;;;;;;2.75;1.25;;;;;;;26.77;35.21;94430.63;4950072;28;20046;-73
2021/05/19 10:58:54;;;;;;;2.67;1.30;;;;;;;26.70;35.99;94408.69;4936201;28;20109;-74
2021/05/19 11:01:37;;;;;;;3.30;1.20;;;;;;;26.59;36.36;94408.31;4962081;28;20034;-73
2021/05/19 11:04:19;;;;;;;2.50;1.00;;;;;;;26.60;36.21;94415.25;4963038;28;20051;-74
2021/05/19 11:06:57;;;;;;;2.47;1.00;;;;;;;26.58;35.89;94417.81;4965758;28;20030;-73
2021/05/19 11:09:24;;;;;;;3.00;1.30;;;;;;;26.58;36.27;94412.34;4964648;28;20035;-73
2021/05/19 11:11:49;;;;;;;2.42;1.00;;;;;;;26.56;36.21;94398.44;4966410;28;20058;-73
2021/05/19 11:14:43;;;;;;;4.03;1.30;;;;;;;26.51;36.55;94391.13;4964241;28;20022;-74
2021/05/19 11:17:17;;;;;;;2.28;1.10;;;;;;;26.52;36.48;94392.59;4954485;28;20484;-73
2021/05/19 11:19:43;;;;;;;2.95;0.98;;;;;;;26.49;36.56;94382.75;4949568;28;20027;-73
2021/05/19 11:22:13;;;;;;;2.95;1.13;;;;;;;26.45;36.41;94374.16;4964698;28;20022;-72
2021/05/19 11:24:49;;;;;;;2.08;1.17;;;;;;;26.50;36.39;94381.44;4961806;28;20461;-72
2021/05/19 11:27:18;;;;;;;2.30;0.95;;;;;;;26.48;36.53;94375.78;4946379;28;20061;-73
2021/05/19 11:29:46;;;;;;;2.10;0.90;;;;;;;26.46;36.48;94378.34;4964854;28;20026;-73
2021/05/19 11:32:14;;;;;;;2.10;1.17;;;;;;;26.51;36.45;94369.22;4960056;28;20039;-73
2021/05/19 11:34:40;;;;;;;2.42;0.80;;;;;;;26.28;36.72;94346.56;4965589;28;20026;-73
2021/05/19 11:37:05;;;;;;;2.95;1.20;;;;;;;26.48;36.63;94365.56;4965859;28;20035;-73
2021/05/19 11:39:35;;;;;;;3.10;1.17;;;;;;;26.47;37.18;94355.16;4962905;28;20027;-72